sensor_id;sensor_type;location;lat;lon;timestamp;temperature;humidity
43143;DHT22;28750;59.842;17.584;2023-07-08T00:02:14;13.00;99.90
43143;DHT22;28750;59.842;17.584;2023-07-08T00:04:42;12.90;99.90
43143;DHT22;28750;59.842;17.584;2023-07-08T00:07:13;12.90;99.90
43143;DHT22;28750;59.842;17.584;2023-07-08T00:09:42;12.90;99.90
43143;DHT22;28750;59.842;17.584;2023-07-08T00:12:11;13.10;99.90
43143;DHT22;28750;59.842;17.584;2023-07-08T00:14:38;13.00;99.90
43143;DHT22;28750;59.842;17.584;2023-07-08T00:17:12;13.00;99.90
43143;DHT22;28750;59.842;17.584;2023-07-08T00:19:40;13.00;99.90
43143;DHT22;28750;59.842;17.584;2023-07-08T00:22:14;13.00;99.90
43143;DHT22;28750;59.842;17.584;2023-07-08T00:24:44;13.10;99.90
43143;DHT22;28750;59.842;17.584;2023-07-08T00:27:12;13.00;99.90
43143;DHT22;28750;59.842;17.584;2023-07-08T00:29:39;13.10;99.90
43143;DHT22;28750;59.842;17.584;2023-07-08T00:32:12;13.10;99.90
43143;DHT22;28750;59.842;17.584;2023-07-08T00:34:40;13.30;99.90
43143;DHT22;28750;59.842;17.584;2023-07-08T00:37:11;13.30;99.90
43143;DHT22;28750;59.842;17.584;2023-07-08T00:39:39;13.30;99.90
43143;DHT22;28750;59.842;17.584;2023-07-08T00:42:17;13.30;99.90
43143;DHT22;28750;59.842;17.584;2023-07-08T00:44:45;13.30;99.90
43143;DHT22;28750;59.842;17.584;2023-07-08T00:47:14;13.30;99.90
43143;DHT22;28750;59.842;17.584;2023-07-08T00:49:50;13.20;99.90
43143;DHT22;28750;59.842;17.584;2023-07-08T00:52:21;13.10;99.90
43143;DHT22;28750;59.842;17.584;2023-07-08T00:54:51;13.10;99.90
43143;DHT22;28750;59.842;17.584;2023-07-08T00:57:19;13.10;99.90
43143;DHT22;28750;59.842;17.584;2023-07-08T00:59:57;13.10;99.90
43143;DHT22;28750;59.842;17.584;2023-07-08T01:02:26;13.10;99.90
43143;DHT22;28750;59.842;17.584;2023-07-08T01:05:22;13.10;99.90
43143;DHT22;28750;59.842;17.584;2023-07-08T01:07:55;13.10;99.90
43143;DHT22;28750;59.842;17.584;2023-07-08T01:10:29;13.20;99.90
43143;DHT22;28750;59.842;17.584;2023-07-08T01:13:00;13.10;99.90
43143;DHT22;28750;59.842;17.584;2023-07-08T01:15:37;13.00;99.90
43143;DHT22;28750;59.842;17.584;2023-07-08T01:18:08;13.10;99.90
43143;DHT22;28750;59.842;17.584;2023-07-08T01:20:36;13.10;99.90
43143;DHT22;28750;59.842;17.584;2023-07-08T01:23:03;13.20;99.90
43143;DHT22;28750;59.842;17.584;2023-07-08T01:25:31;13.10;99.90
43143;DHT22;28750;59.842;17.584;2023-07-08T01:27:59;13.10;99.90
43143;DHT22;28750;59.842;17.584;2023-07-08T01:30:27;13.10;99.90
43143;DHT22;28750;59.842;17.584;2023-07-08T01:32:59;13.10;99.90
43143;DHT22;28750;59.842;17.584;2023-07-08T01:35:28;13.20;99.90
43143;DHT22;28750;59.842;17.584;2023-07-08T01:38:03;13.10;99.90
43143;DHT22;28750;59.842;17.584;2023-07-08T01:40:37;12.90;99.90
43143;DHT22;28750;59.842;17.584;2023-07-08T01:43:05;13.00;99.90
43143;DHT22;28750;59.842;17.584;2023-07-08T01:45:36;12.90;99.90
43143;DHT22;28750;59.842;17.584;2023-07-08T01:48:15;12.90;99.90
43143;DHT22;28750;59.842;17.584;2023-07-08T01:50:54;12.80;99.90
43143;DHT22;28750;59.842;17.584;2023-07-08T01:53:31;12.80;99.90
43143;DHT22;28750;59.842;17.584;2023-07-08T01:55:58;12.80;99.90
43143;DHT22;28750;59.842;17.584;2023-07-08T01:58:26;12.90;99.90
43143;DHT22;28750;59.842;17.584;2023-07-08T02:00:54;12.80;99.90
43143;DHT22;28750;59.842;17.584;2023-07-08T02:03:23;12.80;99.90
43143;DHT22;28750;59.842;17.584;2023-07-08T02:05:50;12.70;99.90
43143;DHT22;28750;59.842;17.584;2023-07-08T02:08:18;12.80;99.90
43143;DHT22;28750;59.842;17.584;2023-07-08T02:10:51;12.80;99.90
43143;DHT22;28750;59.842;17.584;2023-07-08T02:13:19;12.90;99.90
43143;DHT22;28750;59.842;17.584;2023-07-08T02:15:47;12.90;99.90
43143;DHT22;28750;59.842;17.584;2023-07-08T02:18:14;12.80;99.90
43143;DHT22;28750;59.842;17.584;2023-07-08T02:20:43;12.80;99.90
43143;DHT22;28750;59.842;17.584;2023-07-08T02:23:10;12.80;99.90
43143;DHT22;28750;59.842;17.584;2023-07-08T02:25:37;12.90;99.90
43143;DHT22;28750;59.842;17.584;2023-07-08T02:28:04;12.90;99.90
43143;DHT22;28750;59.842;17.584;2023-07-08T02:30:32;12.90;99.90
43143;DHT22;28750;59.842;17.584;2023-07-08T02:32:59;12.90;99.90
43143;DHT22;28750;59.842;17.584;2023-07-08T02:35:28;12.90;99.90
43143;DHT22;28750;59.842;17.584;2023-07-08T02:37:57;12.90;99.90
43143;DHT22;28750;59.842;17.584;2023-07-08T02:40:25;12.90;99.90
43143;DHT22;28750;59.842;17.584;2023-07-08T02:42:52;13.00;99.90
43143;DHT22;28750;59.842;17.584;2023-07-08T02:45:20;13.00;99.90
43143;DHT22;28750;59.842;17.584;2023-07-08T02:47:47;13.00;99.90
43143;DHT22;28750;59.842;17.584;2023-07-08T02:50:15;13.10;99.90
43143;DHT22;28750;59.842;17.584;2023-07-08T02:52:42;13.10;99.90
43143;DHT22;28750;59.842;17.584;2023-07-08T02:55:10;13.10;99.90
43143;DHT22;28750;59.842;17.584;2023-07-08T02:57:37;13.10;99.90
43143;DHT22;28750;59.842;17.584;2023-07-08T03:00:05;13.00;99.90
43143;DHT22;28750;59.842;17.584;2023-07-08T03:02:32;13.00;99.90
43143;DHT22;28750;59.842;17.584;2023-07-08T03:04:59;13.10;99.90
43143;DHT22;28750;59.842;17.584;2023-07-08T03:07:27;13.20;99.90
43143;DHT22;28750;59.842;17.584;2023-07-08T03:09:55;13.20;99.90
43143;DHT22;28750;59.842;17.584;2023-07-08T03:12:22;13.30;99.90
43143;DHT22;28750;59.842;17.584;2023-07-08T03:14:49;13.30;99.90
43143;DHT22;28750;59.842;17.584;2023-07-08T03:17:16;13.30;99.90
43143;DHT22;28750;59.842;17.584;2023-07-08T03:19:45;13.40;99.90
43143;DHT22;28750;59.842;17.584;2023-07-08T03:22:12;13.50;99.90
43143;DHT22;28750;59.842;17.584;2023-07-08T03:24:40;13.60;99.90
43143;DHT22;28750;59.842;17.584;2023-07-08T03:27:16;13.60;99.90
43143;DHT22;28750;59.842;17.584;2023-07-08T03:29:43;13.70;99.90
43143;DHT22;28750;59.842;17.584;2023-07-08T03:32:11;13.80;99.90
43143;DHT22;28750;59.842;17.584;2023-07-08T03:34:39;13.70;99.90
43143;DHT22;28750;59.842;17.584;2023-07-08T03:37:06;13.80;99.90
43143;DHT22;28750;59.842;17.584;2023-07-08T03:39:35;13.80;99.90
43143;DHT22;28750;59.842;17.584;2023-07-08T03:42:02;13.80;99.90
43143;DHT22;28750;59.842;17.584;2023-07-08T03:44:30;13.90;99.90
43143;DHT22;28750;59.842;17.584;2023-07-08T03:46:57;14.00;99.90
43143;DHT22;28750;59.842;17.584;2023-07-08T03:49:25;14.10;99.90
43143;DHT22;28750;59.842;17.584;2023-07-08T03:51:53;14.30;99.90
43143;DHT22;28750;59.842;17.584;2023-07-08T03:54:23;14.40;99.90
43143;DHT22;28750;59.842;17.584;2023-07-08T03:56:51;14.50;99.90
43143;DHT22;28750;59.842;17.584;2023-07-08T03:59:18;14.80;99.90
43143;DHT22;28750;59.842;17.584;2023-07-08T04:01:46;14.60;99.90
43143;DHT22;28750;59.842;17.584;2023-07-08T04:04:15;14.80;99.90
43143;DHT22;28750;59.842;17.584;2023-07-08T04:06:42;14.80;99.90
43143;DHT22;28750;59.842;17.584;2023-07-08T04:09:10;14.80;99.90
43143;DHT22;28750;59.842;17.584;2023-07-08T04:11:38;14.70;99.90
43143;DHT22;28750;59.842;17.584;2023-07-08T04:14:05;15.00;99.90
43143;DHT22;28750;59.842;17.584;2023-07-08T04:16:45;15.10;99.90
43143;DHT22;28750;59.842;17.584;2023-07-08T04:19:14;15.00;99.90
43143;DHT22;28750;59.842;17.584;2023-07-08T04:21:44;14.90;99.90
43143;DHT22;28750;59.842;17.584;2023-07-08T04:24:13;15.00;99.90
43143;DHT22;28750;59.842;17.584;2023-07-08T04:26:41;15.40;99.90
43143;DHT22;28750;59.842;17.584;2023-07-08T04:29:16;15.60;99.90
43143;DHT22;28750;59.842;17.584;2023-07-08T04:31:44;15.80;99.90
43143;DHT22;28750;59.842;17.584;2023-07-08T04:34:13;15.80;99.90
43143;DHT22;28750;59.842;17.584;2023-07-08T04:36:40;16.00;99.90
43143;DHT22;28750;59.842;17.584;2023-07-08T04:39:09;16.00;99.90
43143;DHT22;28750;59.842;17.584;2023-07-08T04:41:37;16.20;99.90
43143;DHT22;28750;59.842;17.584;2023-07-08T04:44:10;16.30;99.90
43143;DHT22;28750;59.842;17.584;2023-07-08T04:46:41;16.30;99.90
43143;DHT22;28750;59.842;17.584;2023-07-08T04:49:09;16.40;99.90
43143;DHT22;28750;59.842;17.584;2023-07-08T04:51:38;16.50;99.90
43143;DHT22;28750;59.842;17.584;2023-07-08T04:54:05;16.70;99.90
43143;DHT22;28750;59.842;17.584;2023-07-08T04:59:03;16.80;99.90
43143;DHT22;28750;59.842;17.584;2023-07-08T05:01:30;16.90;99.90
43143;DHT22;28750;59.842;17.584;2023-07-08T05:03:58;16.90;99.90
43143;DHT22;28750;59.842;17.584;2023-07-08T05:06:26;17.00;99.90
43143;DHT22;28750;59.842;17.584;2023-07-08T05:08:53;17.00;99.90
43143;DHT22;28750;59.842;17.584;2023-07-08T05:11:21;17.10;99.90
43143;DHT22;28750;59.842;17.584;2023-07-08T05:13:48;17.30;99.90
43143;DHT22;28750;59.842;17.584;2023-07-08T05:16:15;17.50;99.90
43143;DHT22;28750;59.842;17.584;2023-07-08T05:18:43;17.50;99.90
43143;DHT22;28750;59.842;17.584;2023-07-08T05:21:10;17.70;99.90
43143;DHT22;28750;59.842;17.584;2023-07-08T05:23:38;17.80;99.90
43143;DHT22;28750;59.842;17.584;2023-07-08T05:26:06;17.80;99.90
43143;DHT22;28750;59.842;17.584;2023-07-08T05:28:34;17.70;99.90
43143;DHT22;28750;59.842;17.584;2023-07-08T05:31:02;17.90;99.90
43143;DHT22;28750;59.842;17.584;2023-07-08T05:33:30;17.90;99.90
43143;DHT22;28750;59.842;17.584;2023-07-08T05:35:58;17.90;99.90
43143;DHT22;28750;59.842;17.584;2023-07-08T05:38:26;18.00;99.90
43143;DHT22;28750;59.842;17.584;2023-07-08T05:40:56;18.20;99.90
43143;DHT22;28750;59.842;17.584;2023-07-08T05:43:24;18.30;99.90
43143;DHT22;28750;59.842;17.584;2023-07-08T05:45:52;18.10;99.90
43143;DHT22;28750;59.842;17.584;2023-07-08T05:48:23;18.20;99.90
43143;DHT22;28750;59.842;17.584;2023-07-08T05:50:51;18.50;99.90
43143;DHT22;28750;59.842;17.584;2023-07-08T05:53:19;18.50;16.20
43143;DHT22;28750;59.842;17.584;2023-07-08T05:55:48;18.60;1.00
43143;DHT22;28750;59.842;17.584;2023-07-08T05:58:16;18.60;99.90
43143;DHT22;28750;59.842;17.584;2023-07-08T06:00:43;18.80;99.90
43143;DHT22;28750;59.842;17.584;2023-07-08T06:03:11;18.80;99.90
43143;DHT22;28750;59.842;17.584;2023-07-08T06:05:38;18.80;12.70
43143;DHT22;28750;59.842;17.584;2023-07-08T06:08:06;18.60;99.90
43143;DHT22;28750;59.842;17.584;2023-07-08T06:10:34;18.50;82.50
43143;DHT22;28750;59.842;17.584;2023-07-08T06:13:01;18.40;99.90
43143;DHT22;28750;59.842;17.584;2023-07-08T06:15:28;18.40;99.90
43143;DHT22;28750;59.842;17.584;2023-07-08T06:17:56;18.40;99.90
43143;DHT22;28750;59.842;17.584;2023-07-08T06:20:26;18.50;1.00
43143;DHT22;28750;59.842;17.584;2023-07-08T06:22:54;18.80;1.00
43143;DHT22;28750;59.842;17.584;2023-07-08T06:25:21;18.90;1.00
43143;DHT22;28750;59.842;17.584;2023-07-08T06:27:48;19.00;99.90
43143;DHT22;28750;59.842;17.584;2023-07-08T06:30:16;19.10;99.90
43143;DHT22;28750;59.842;17.584;2023-07-08T06:32:43;19.00;99.90
43143;DHT22;28750;59.842;17.584;2023-07-08T06:35:10;19.20;99.90
43143;DHT22;28750;59.842;17.584;2023-07-08T06:37:37;19.10;1.00
43143;DHT22;28750;59.842;17.584;2023-07-08T06:40:05;19.30;62.70
43143;DHT22;28750;59.842;17.584;2023-07-08T06:42:32;19.20;99.90
43143;DHT22;28750;59.842;17.584;2023-07-08T06:44:59;19.10;93.80
43143;DHT22;28750;59.842;17.584;2023-07-08T06:47:28;19.40;30.20
43143;DHT22;28750;59.842;17.584;2023-07-08T06:49:55;19.60;99.90
43143;DHT22;28750;59.842;17.584;2023-07-08T06:52:23;19.50;99.90
43143;DHT22;28750;59.842;17.584;2023-07-08T06:54:50;19.50;1.00
43143;DHT22;28750;59.842;17.584;2023-07-08T06:57:17;19.60;1.00
43143;DHT22;28750;59.842;17.584;2023-07-08T06:59:44;19.70;99.90
43143;DHT22;28750;59.842;17.584;2023-07-08T07:02:12;19.60;52.00
43143;DHT22;28750;59.842;17.584;2023-07-08T07:04:39;19.60;98.70
43143;DHT22;28750;59.842;17.584;2023-07-08T07:07:06;19.80;99.90
43143;DHT22;28750;59.842;17.584;2023-07-08T07:09:33;19.90;99.90
43143;DHT22;28750;59.842;17.584;2023-07-08T07:12:01;20.10;99.90
43143;DHT22;28750;59.842;17.584;2023-07-08T07:14:28;20.20;55.40
43143;DHT22;28750;59.842;17.584;2023-07-08T07:16:56;20.30;1.00
43143;DHT22;28750;59.842;17.584;2023-07-08T07:19:23;20.20;99.90
43143;DHT22;28750;59.842;17.584;2023-07-08T07:21:50;20.70;1.00
43143;DHT22;28750;59.842;17.584;2023-07-08T07:24:18;20.70;99.90
43143;DHT22;28750;59.842;17.584;2023-07-08T07:26:45;20.70;72.60
43143;DHT22;28750;59.842;17.584;2023-07-08T07:29:16;21.00;99.90
43143;DHT22;28750;59.842;17.584;2023-07-08T07:31:44;21.00;1.00
43143;DHT22;28750;59.842;17.584;2023-07-08T07:34:13;21.30;53.50
43143;DHT22;28750;59.842;17.584;2023-07-08T07:36:41;21.60;79.30
43143;DHT22;28750;59.842;17.584;2023-07-08T07:39:08;21.40;11.50
43143;DHT22;28750;59.842;17.584;2023-07-08T07:41:35;21.60;99.90
43143;DHT22;28750;59.842;17.584;2023-07-08T07:44:02;21.60;35.70
43143;DHT22;28750;59.842;17.584;2023-07-08T07:46:30;21.70;43.30
43143;DHT22;28750;59.842;17.584;2023-07-08T07:48:57;21.50;99.90
43143;DHT22;28750;59.842;17.584;2023-07-08T07:51:24;21.70;99.90
43143;DHT22;28750;59.842;17.584;2023-07-08T07:53:52;21.90;99.90
43143;DHT22;28750;59.842;17.584;2023-07-08T07:56:19;22.00;99.90
43143;DHT22;28750;59.842;17.584;2023-07-08T07:58:47;22.20;99.90
43143;DHT22;28750;59.842;17.584;2023-07-08T08:01:14;22.40;99.90
43143;DHT22;28750;59.842;17.584;2023-07-08T08:03:41;22.10;99.90
43143;DHT22;28750;59.842;17.584;2023-07-08T08:06:09;22.20;1.00
43143;DHT22;28750;59.842;17.584;2023-07-08T08:08:36;21.60;1.00
43143;DHT22;28750;59.842;17.584;2023-07-08T08:11:03;21.20;29.00
43143;DHT22;28750;59.842;17.584;2023-07-08T08:13:30;22.00;90.90
43143;DHT22;28750;59.842;17.584;2023-07-08T08:15:59;22.40;99.90
43143;DHT22;28750;59.842;17.584;2023-07-08T08:18:26;22.50;99.90
43143;DHT22;28750;59.842;17.584;2023-07-08T08:20:54;22.80;99.90
43143;DHT22;28750;59.842;17.584;2023-07-08T08:23:21;23.10;99.90
43143;DHT22;28750;59.842;17.584;2023-07-08T08:25:49;23.20;99.90
43143;DHT22;28750;59.842;17.584;2023-07-08T08:28:17;23.40;29.40
43143;DHT22;28750;59.842;17.584;2023-07-08T08:30:49;23.50;74.20
43143;DHT22;28750;59.842;17.584;2023-07-08T08:33:17;23.50;1.00
43143;DHT22;28750;59.842;17.584;2023-07-08T08:35:45;23.90;6.30
43143;DHT22;28750;59.842;17.584;2023-07-08T08:38:12;23.40;99.90
43143;DHT22;28750;59.842;17.584;2023-07-08T08:40:41;23.10;1.00
43143;DHT22;28750;59.842;17.584;2023-07-08T08:43:20;23.60;99.90
43143;DHT22;28750;59.842;17.584;2023-07-08T08:48:21;23.70;99.90
43143;DHT22;28750;59.842;17.584;2023-07-08T08:50:56;23.10;99.90
43143;DHT22;28750;59.842;17.584;2023-07-08T08:53:26;23.30;99.90
43143;DHT22;28750;59.842;17.584;2023-07-08T08:56:00;23.20;99.90
43143;DHT22;28750;59.842;17.584;2023-07-08T08:58:41;23.40;99.90
43143;DHT22;28750;59.842;17.584;2023-07-08T09:01:15;23.60;99.90
43143;DHT22;28750;59.842;17.584;2023-07-08T09:06:27;23.90;95.30
43143;DHT22;28750;59.842;17.584;2023-07-08T09:09:00;23.50;51.90
43143;DHT22;28750;59.842;17.584;2023-07-08T09:14:23;23.50;1.00
43143;DHT22;28750;59.842;17.584;2023-07-08T09:19:34;23.20;1.00
43143;DHT22;28750;59.842;17.584;2023-07-08T09:22:09;24.40;1.00
43143;DHT22;28750;59.842;17.584;2023-07-08T09:24:53;24.40;99.90
43143;DHT22;28750;59.842;17.584;2023-07-08T09:27:22;25.00;99.90
43143;DHT22;28750;59.842;17.584;2023-07-08T09:29:49;25.10;1.00
43143;DHT22;28750;59.842;17.584;2023-07-08T09:32:22;25.70;1.00
43143;DHT22;28750;59.842;17.584;2023-07-08T09:34:56;25.40;99.90
43143;DHT22;28750;59.842;17.584;2023-07-08T09:37:30;25.20;99.90
43143;DHT22;28750;59.842;17.584;2023-07-08T09:40:00;25.30;99.90
43143;DHT22;28750;59.842;17.584;2023-07-08T09:42:31;24.90;99.90
43143;DHT22;28750;59.842;17.584;2023-07-08T09:45:03;25.10;99.90
43143;DHT22;28750;59.842;17.584;2023-07-08T09:47:36;24.60;99.90
43143;DHT22;28750;59.842;17.584;2023-07-08T09:50:17;23.30;99.90
43143;DHT22;28750;59.842;17.584;2023-07-08T09:52:46;24.20;99.90
43143;DHT22;28750;59.842;17.584;2023-07-08T09:55:14;25.30;99.90
43143;DHT22;28750;59.842;17.584;2023-07-08T09:57:43;25.60;23.90
43143;DHT22;28750;59.842;17.584;2023-07-08T10:00:14;25.70;14.40
43143;DHT22;28750;59.842;17.584;2023-07-08T10:02:56;26.00;51.50
43143;DHT22;28750;59.842;17.584;2023-07-08T10:05:32;26.10;1.00
43143;DHT22;28750;59.842;17.584;2023-07-08T10:08:02;26.30;1.00
43143;DHT22;28750;59.842;17.584;2023-07-08T10:10:34;26.30;1.00
43143;DHT22;28750;59.842;17.584;2023-07-08T10:13:20;26.50;1.00
43143;DHT22;28750;59.842;17.584;2023-07-08T10:15:56;26.30;1.00
43143;DHT22;28750;59.842;17.584;2023-07-08T10:18:33;26.20;1.00
43143;DHT22;28750;59.842;17.584;2023-07-08T10:21:14;26.00;99.90
43143;DHT22;28750;59.842;17.584;2023-07-08T10:26:47;26.10;99.90
43143;DHT22;28750;59.842;17.584;2023-07-08T10:29:39;26.50;99.90
43143;DHT22;28750;59.842;17.584;2023-07-08T10:32:37;26.90;99.90
43143;DHT22;28750;59.842;17.584;2023-07-08T10:35:27;26.50;99.90
43143;DHT22;28750;59.842;17.584;2023-07-08T10:40:58;26.80;99.90
43143;DHT22;28750;59.842;17.584;2023-07-08T10:43:30;27.00;99.90
43143;DHT22;28750;59.842;17.584;2023-07-08T10:46:22;27.00;99.90
43143;DHT22;28750;59.842;17.584;2023-07-08T10:49:28;27.10;99.90
43143;DHT22;28750;59.842;17.584;2023-07-08T10:52:15;27.40;99.90
43143;DHT22;28750;59.842;17.584;2023-07-08T10:55:14;27.20;99.90
43143;DHT22;28750;59.842;17.584;2023-07-08T10:57:54;27.20;99.90
43143;DHT22;28750;59.842;17.584;2023-07-08T11:06:15;27.70;99.90
43143;DHT22;28750;59.842;17.584;2023-07-08T11:08:48;27.40;99.90
43143;DHT22;28750;59.842;17.584;2023-07-08T11:14:16;27.30;99.90
43143;DHT22;28750;59.842;17.584;2023-07-08T11:16:48;27.50;99.90
43143;DHT22;28750;59.842;17.584;2023-07-08T11:19:30;27.00;99.90
43143;DHT22;28750;59.842;17.584;2023-07-08T11:22:00;26.90;99.90
43143;DHT22;28750;59.842;17.584;2023-07-08T11:24:45;27.50;99.90
43143;DHT22;28750;59.842;17.584;2023-07-08T11:27:23;28.00;99.90
43143;DHT22;28750;59.842;17.584;2023-07-08T11:32:33;27.50;99.90
43143;DHT22;28750;59.842;17.584;2023-07-08T11:35:02;27.40;99.90
43143;DHT22;28750;59.842;17.584;2023-07-08T11:37:31;27.50;99.90
43143;DHT22;28750;59.842;17.584;2023-07-08T11:40:18;27.30;99.90
43143;DHT22;28750;59.842;17.584;2023-07-08T11:42:51;27.90;99.90
43143;DHT22;28750;59.842;17.584;2023-07-08T11:47:48;27.90;99.90
43143;DHT22;28750;59.842;17.584;2023-07-08T11:50:24;28.10;66.50
43143;DHT22;28750;59.842;17.584;2023-07-08T11:52:54;28.40;80.60
43143;DHT22;28750;59.842;17.584;2023-07-08T11:55:37;28.10;63.70
43143;DHT22;28750;59.842;17.584;2023-07-08T11:58:18;28.90;99.90
43143;DHT22;28750;59.842;17.584;2023-07-08T12:03:39;28.20;94.70
43143;DHT22;28750;59.842;17.584;2023-07-08T12:08:58;26.30;94.10
43143;DHT22;28750;59.842;17.584;2023-07-08T12:11:35;25.90;90.80
43143;DHT22;28750;59.842;17.584;2023-07-08T12:14:06;25.20;99.90
43143;DHT22;28750;59.842;17.584;2023-07-08T12:16:34;24.20;99.90
43143;DHT22;28750;59.842;17.584;2023-07-08T12:19:03;23.50;1.00
43143;DHT22;28750;59.842;17.584;2023-07-08T12:21:35;23.00;99.90
43143;DHT22;28750;59.842;17.584;2023-07-08T12:24:06;23.00;99.90
43143;DHT22;28750;59.842;17.584;2023-07-08T12:26:34;22.80;25.30
43143;DHT22;28750;59.842;17.584;2023-07-08T12:29:02;22.80;99.90
43143;DHT22;28750;59.842;17.584;2023-07-08T12:31:29;23.00;99.90
43143;DHT22;28750;59.842;17.584;2023-07-08T12:33:59;23.30;1.00
43143;DHT22;28750;59.842;17.584;2023-07-08T12:36:28;23.40;1.00
43143;DHT22;28750;59.842;17.584;2023-07-08T12:38:57;22.70;99.90
43143;DHT22;28750;59.842;17.584;2023-07-08T12:41:31;22.60;99.90
43143;DHT22;28750;59.842;17.584;2023-07-08T12:44:00;23.00;99.90
43143;DHT22;28750;59.842;17.584;2023-07-08T12:46:28;23.20;99.90
43143;DHT22;28750;59.842;17.584;2023-07-08T12:48:56;24.10;99.90
43143;DHT22;28750;59.842;17.584;2023-07-08T12:51:25;24.40;1.00
43143;DHT22;28750;59.842;17.584;2023-07-08T12:53:53;24.30;25.40
43143;DHT22;28750;59.842;17.584;2023-07-08T12:56:23;24.80;63.40
43143;DHT22;28750;59.842;17.584;2023-07-08T12:58:53;25.20;99.90
43143;DHT22;28750;59.842;17.584;2023-07-08T13:01:22;25.40;99.90
43143;DHT22;28750;59.842;17.584;2023-07-08T13:03:52;24.60;99.90
43143;DHT22;28750;59.842;17.584;2023-07-08T13:06:23;23.50;99.90
43143;DHT22;28750;59.842;17.584;2023-07-08T13:08:52;22.90;1.00
43143;DHT22;28750;59.842;17.584;2023-07-08T13:11:21;22.70;6.60
43143;DHT22;28750;59.842;17.584;2023-07-08T13:14:00;22.40;1.00
43143;DHT22;28750;59.842;17.584;2023-07-08T13:16:33;22.20;42.70
43143;DHT22;28750;59.842;17.584;2023-07-08T13:19:02;21.90;1.00
43143;DHT22;28750;59.842;17.584;2023-07-08T13:21:30;22.00;99.90
43143;DHT22;28750;59.842;17.584;2023-07-08T13:23:58;21.70;99.90
43143;DHT22;28750;59.842;17.584;2023-07-08T13:26:29;21.70;1.00
43143;DHT22;28750;59.842;17.584;2023-07-08T13:29:00;21.70;1.00
43143;DHT22;28750;59.842;17.584;2023-07-08T13:31:35;21.60;35.20
43143;DHT22;28750;59.842;17.584;2023-07-08T13:34:10;21.60;99.90
43143;DHT22;28750;59.842;17.584;2023-07-08T13:36:44;21.60;1.00
43143;DHT22;28750;59.842;17.584;2023-07-08T13:39:22;21.60;99.90
43143;DHT22;28750;59.842;17.584;2023-07-08T13:41:51;21.50;99.90
43143;DHT22;28750;59.842;17.584;2023-07-08T13:44:18;21.70;99.90
43143;DHT22;28750;59.842;17.584;2023-07-08T13:46:52;21.60;99.90
43143;DHT22;28750;59.842;17.584;2023-07-08T13:51:50;21.80;99.90
43143;DHT22;28750;59.842;17.584;2023-07-08T13:54:27;21.70;17.40
43143;DHT22;28750;59.842;17.584;2023-07-08T13:57:00;21.80;99.90
43143;DHT22;28750;59.842;17.584;2023-07-08T13:59:28;21.80;99.90
43143;DHT22;28750;59.842;17.584;2023-07-08T14:01:57;21.90;99.90
43143;DHT22;28750;59.842;17.584;2023-07-08T14:04:30;21.90;1.00
43143;DHT22;28750;59.842;17.584;2023-07-08T14:06:57;21.60;99.90
43143;DHT22;28750;59.842;17.584;2023-07-08T14:09:25;21.90;99.90
43143;DHT22;28750;59.842;17.584;2023-07-08T14:11:52;22.00;39.70
43143;DHT22;28750;59.842;17.584;2023-07-08T14:14:20;22.00;99.90
43143;DHT22;28750;59.842;17.584;2023-07-08T14:16:52;22.10;50.90
43143;DHT22;28750;59.842;17.584;2023-07-08T14:19:26;22.10;99.90
43143;DHT22;28750;59.842;17.584;2023-07-08T14:22:00;22.30;99.90
43143;DHT22;28750;59.842;17.584;2023-07-08T14:24:28;22.70;99.90
43143;DHT22;28750;59.842;17.584;2023-07-08T14:26:55;23.10;99.90
43143;DHT22;28750;59.842;17.584;2023-07-08T14:29:22;23.20;1.00
43143;DHT22;28750;59.842;17.584;2023-07-08T14:31:50;23.30;20.30
43143;DHT22;28750;59.842;17.584;2023-07-08T14:34:35;23.10;99.90
43143;DHT22;28750;59.842;17.584;2023-07-08T14:37:02;23.20;68.20
43143;DHT22;28750;59.842;17.584;2023-07-08T14:39:30;23.80;99.90
43143;DHT22;28750;59.842;17.584;2023-07-08T14:41:57;24.10;99.90
43143;DHT22;28750;59.842;17.584;2023-07-08T14:44:32;24.10;1.00
43143;DHT22;28750;59.842;17.584;2023-07-08T14:47:00;24.20;1.00
43143;DHT22;28750;59.842;17.584;2023-07-08T14:49:28;24.30;99.90
43143;DHT22;28750;59.842;17.584;2023-07-08T14:51:55;23.90;99.90
43143;DHT22;28750;59.842;17.584;2023-07-08T14:54:22;23.80;99.90
43143;DHT22;28750;59.842;17.584;2023-07-08T14:56:49;24.10;99.90
43143;DHT22;28750;59.842;17.584;2023-07-08T14:59:21;23.50;99.90
43143;DHT22;28750;59.842;17.584;2023-07-08T15:01:50;23.30;99.90
43143;DHT22;28750;59.842;17.584;2023-07-08T15:04:18;23.30;99.90
43143;DHT22;28750;59.842;17.584;2023-07-08T15:06:46;23.40;99.90
43143;DHT22;28750;59.842;17.584;2023-07-08T15:09:15;23.30;99.90
43143;DHT22;28750;59.842;17.584;2023-07-08T15:11:42;23.30;1.00
43143;DHT22;28750;59.842;17.584;2023-07-08T15:14:19;23.40;99.90
43143;DHT22;28750;59.842;17.584;2023-07-08T15:16:47;23.20;99.90
43143;DHT22;28750;59.842;17.584;2023-07-08T15:19:16;23.10;99.90
43143;DHT22;28750;59.842;17.584;2023-07-08T15:21:44;22.90;99.90
43143;DHT22;28750;59.842;17.584;2023-07-08T15:24:13;22.90;99.90
43143;DHT22;28750;59.842;17.584;2023-07-08T15:26:48;23.00;1.00
43143;DHT22;28750;59.842;17.584;2023-07-08T15:29:20;23.00;88.00
43143;DHT22;28750;59.842;17.584;2023-07-08T15:31:49;23.00;1.00
43143;DHT22;28750;59.842;17.584;2023-07-08T15:34:20;23.10;1.00
43143;DHT22;28750;59.842;17.584;2023-07-08T15:36:48;23.30;1.00
43143;DHT22;28750;59.842;17.584;2023-07-08T15:39:16;23.50;1.00
43143;DHT22;28750;59.842;17.584;2023-07-08T15:41:43;23.60;1.00
43143;DHT22;28750;59.842;17.584;2023-07-08T15:44:12;23.60;18.80
43143;DHT22;28750;59.842;17.584;2023-07-08T15:46:47;23.50;1.00
43143;DHT22;28750;59.842;17.584;2023-07-08T15:49:20;23.40;1.00
43143;DHT22;28750;59.842;17.584;2023-07-08T15:51:48;23.40;1.00
43143;DHT22;28750;59.842;17.584;2023-07-08T15:54:18;23.20;99.90
43143;DHT22;28750;59.842;17.584;2023-07-08T15:56:54;23.10;1.00
43143;DHT22;28750;59.842;17.584;2023-07-08T15:59:26;22.90;1.00
43143;DHT22;28750;59.842;17.584;2023-07-08T16:01:54;22.70;4.00
43143;DHT22;28750;59.842;17.584;2023-07-08T16:04:26;22.70;99.90
43143;DHT22;28750;59.842;17.584;2023-07-08T16:06:54;22.50;99.30
43143;DHT22;28750;59.842;17.584;2023-07-08T16:09:21;22.50;99.90
43143;DHT22;28750;59.842;17.584;2023-07-08T16:11:49;22.30;99.90
43143;DHT22;28750;59.842;17.584;2023-07-08T16:14:18;22.30;99.90
43143;DHT22;28750;59.842;17.584;2023-07-08T16:16:45;22.10;99.90
43143;DHT22;28750;59.842;17.584;2023-07-08T16:19:13;22.10;1.00